Fluvanna, Texas
Current Conditions -  °F | °C
As of 5:35 AM on Friday 24 Oct 2014 (Local Time) from KSNK Reporting Station
Moderate Fog Moderate Fog  
Wind Chill: 56°   Ceiling: 100
Heat Index: 56°   Visibility: 0.25mi
Dew Point: 56°   Wind: 5mph
Humidity: 100%   Direction: 220°SW
Pressure: 30.13"   Gusts: NA
Location:  32.89°N, 101.15°W
Report Text: KSNK 241035Z AUTO 22004KT 1/4SM FG OVC001 14/14 A3013 RMK AO2 T01360136
Loading
Personal Weather Stations






























Interactive Weather Map
Tropical Storm Tracking
New forecast layout! Learn more

10-Day Weather Forecast

Advertisements
Track Severe Weather on mobile